createdAt,value
2022-09-23T00:01:32.912Z,74.20
2022-09-23T00:03:38.418Z,73.42
2022-09-23T00:05:41.953Z,73.55
2022-09-23T00:07:46.020Z,73.55
2022-09-23T00:09:49.217Z,74.52
2022-09-23T00:11:52.475Z,75.00
2022-09-23T00:14:00.998Z,74.64
2022-09-23T00:16:11.235Z,73.81
2022-09-23T00:18:20.345Z,73.34
2022-09-23T00:20:29.945Z,73.62
2022-09-23T00:22:41.903Z,73.61
2022-09-23T00:24:45.572Z,73.80
2022-09-23T00:26:55.106Z,73.85
2022-09-23T00:28:58.743Z,73.98
2022-09-23T00:31:14.842Z,74.21
2022-09-23T00:33:21.553Z,73.37
2022-09-23T00:35:24.679Z,73.50
2022-09-23T00:37:32.221Z,72.84
2022-09-23T00:39:35.740Z,72.33
2022-09-23T00:41:38.860Z,72.10
2022-09-23T00:43:57.883Z,72.95
2022-09-23T00:46:02.124Z,72.63
2022-09-23T00:48:07.179Z,72.69
2022-09-23T00:50:40.595Z,73.06
2022-09-23T00:52:48.534Z,72.68
2022-09-23T00:54:54.970Z,72.79
2022-09-23T00:56:59.527Z,73.59
2022-09-23T00:59:07.157Z,73.56
2022-09-23T01:01:14.827Z,73.65
2022-09-23T01:03:18.066Z,73.75
2022-09-23T01:05:22.722Z,74.38
2022-09-23T01:07:26.092Z,74.36
2022-09-23T01:09:32.373Z,73.97
2022-09-23T01:11:47.273Z,73.17
2022-09-23T01:14:32.753Z,72.81
2022-09-23T01:16:57.849Z,73.45
2022-09-23T01:19:37.118Z,73.29
2022-09-23T01:21:48.608Z,73.70
2022-09-23T01:24:06.628Z,73.28
2022-09-23T01:26:46.445Z,73.85
2022-09-23T01:29:28.903Z,74.16
2022-09-23T01:31:44.438Z,73.94
2022-09-23T01:34:05.517Z,73.61
2022-09-23T01:36:35.141Z,74.67
2022-09-23T01:39:06.518Z,74.89
2022-09-23T01:41:30.984Z,74.35
2022-09-23T01:43:53.552Z,74.51
2022-09-23T01:46:00.578Z,75.11
2022-09-23T01:48:20.999Z,74.22
2022-09-23T01:50:44.324Z,74.48
2022-09-23T01:52:49.110Z,74.47
2022-09-23T01:55:23.205Z,74.61
2022-09-23T01:58:11.192Z,75.42
2022-09-23T02:03:04.087Z,75.46
2022-09-23T02:05:32.721Z,75.62
2022-09-23T02:08:23.888Z,75.99
2022-09-23T02:10:37.493Z,76.70
2022-09-23T02:12:51.298Z,76.75
2022-09-23T02:15:09.425Z,76.80
2022-09-23T02:17:19.582Z,77.66
2022-09-23T02:19:34.218Z,77.60
2022-09-23T02:21:44.435Z,77.59
2022-09-23T02:23:58.673Z,76.84
2022-09-23T02:26:33.130Z,76.40
2022-09-23T02:29:18.231Z,76.68
2022-09-23T02:31:56.301Z,76.12
2022-09-23T02:34:50.237Z,76.40
2022-09-23T02:37:24.090Z,76.42
2022-09-23T02:39:51.655Z,76.56
2022-09-23T02:42:14.268Z,75.44
2022-09-23T02:44:24.431Z,75.51
2022-09-23T02:46:29.517Z,75.40
2022-09-23T02:48:53.904Z,75.58
2022-09-23T02:50:58.531Z,76.08
2022-09-23T02:53:04.645Z,75.24
2022-09-23T02:55:10.989Z,75.92
2022-09-23T02:57:16.708Z,76.68
2022-09-23T02:59:34.293Z,76.29
2022-09-23T03:02:19.158Z,76.20
2022-09-23T03:05:10.581Z,76.58
2022-09-23T03:08:12.935Z,76.61
2022-09-23T03:10:45.793Z,76.39
2022-09-23T03:13:26.111Z,76.92
2022-09-23T03:16:08.975Z,76.80
2022-09-23T03:18:26.370Z,77.05
2022-09-23T03:21:02.359Z,76.51
2022-09-23T03:23:12.574Z,76.41
2022-09-23T03:25:25.274Z,76.69
2022-09-23T03:27:32.165Z,77.54
2022-09-23T03:29:36.910Z,77.74
2022-09-23T03:31:45.092Z,77.61
2022-09-23T03:33:59.052Z,77.71
2022-09-23T03:36:10.610Z,77.29
2022-09-23T03:38:23.837Z,77.10
2022-09-23T03:40:44.256Z,77.02
2022-09-23T03:42:52.864Z,76.29
2022-09-23T03:44:58.569Z,76.35
2022-09-23T03:47:06.788Z,76.62
2022-09-23T03:49:34.515Z,76.37
2022-09-23T03:51:44.501Z,76.53
2022-09-23T03:53:48.601Z,76.29
2022-09-23T03:55:52.479Z,76.54
2022-09-23T03:58:03.469Z,76.27
2022-09-23T04:00:08.692Z,76.12
2022-09-23T04:02:15.835Z,76.11
2022-09-23T04:04:23.443Z,76.47
2022-09-23T04:06:31.696Z,76.00
2022-09-23T04:08:37.825Z,75.48
2022-09-23T04:10:43.505Z,76.27
2022-09-23T04:13:01.895Z,77.05
2022-09-23T04:15:13.716Z,76.25
2022-09-23T04:17:20.643Z,75.62
2022-09-23T04:19:24.261Z,76.10
2022-09-23T04:21:27.933Z,76.16
2022-09-23T04:23:34.361Z,75.29
2022-09-23T04:25:37.339Z,75.16
2022-09-23T04:27:39.904Z,75.42
2022-09-23T04:29:42.900Z,75.27
2022-09-23T04:31:45.580Z,74.99
2022-09-23T04:33:48.058Z,75.07
2022-09-23T04:35:56.354Z,74.99
2022-09-23T04:37:58.463Z,74.87
2022-09-23T04:40:00.734Z,75.26
2022-09-23T04:42:03.396Z,75.26
2022-09-23T04:44:05.713Z,74.97
2022-09-23T04:46:11.603Z,74.75
2022-09-23T04:48:14.108Z,75.08
2022-09-23T04:50:16.598Z,75.45
2022-09-23T04:52:18.766Z,76.45
2022-09-23T04:54:21.455Z,76.66
2022-09-23T04:56:27.452Z,76.85
2022-09-23T04:58:29.963Z,76.92
2022-09-23T05:00:32.418Z,77.14
2022-09-23T05:02:34.507Z,77.32
2022-09-23T05:04:36.713Z,76.54
2022-09-23T05:06:39.594Z,76.17
2022-09-23T05:09:01.670Z,76.07
2022-09-23T05:50:04.411Z,58.96
2022-09-23T06:11:23.836Z,52.44
2022-09-23T06:13:33.647Z,52.47
2022-09-23T06:15:42.851Z,52.10
2022-09-23T06:17:57.477Z,51.49
2022-09-23T06:20:01.808Z,51.22
2022-09-23T06:22:10.624Z,50.53
2022-09-23T06:24:30.988Z,50.57
2022-09-23T06:37:20.661Z,48.18
2022-09-23T06:39:50.646Z,47.54
2022-09-23T06:41:53.436Z,46.90
2022-09-23T06:43:56.567Z,46.45
2022-09-23T06:46:02.595Z,46.47
2022-09-23T06:48:05.759Z,46.29
2022-09-23T06:50:10.009Z,45.90
2022-09-23T06:52:13.465Z,45.54
2022-09-23T06:54:16.023Z,45.17
2022-09-23T06:56:18.639Z,45.41
2022-09-23T06:58:21.559Z,45.15
2022-09-23T07:00:25.084Z,44.85
2022-09-23T07:02:27.799Z,45.03
2022-09-23T07:04:30.928Z,44.75
2022-09-23T07:06:33.183Z,44.92
2022-09-23T07:08:36.134Z,44.98
2022-09-23T07:10:38.945Z,45.53
2022-09-23T07:12:41.544Z,45.40
2022-09-23T07:14:43.696Z,45.75
2022-09-23T07:16:49.574Z,45.66
2022-09-23T07:18:51.827Z,45.93
2022-09-23T07:20:54.693Z,46.17
2022-09-23T07:22:57.173Z,45.67
2022-09-23T07:24:59.471Z,45.56
2022-09-23T07:27:02.466Z,46.31
2022-09-23T07:29:05.414Z,46.42
2022-09-23T07:31:12.481Z,46.29
2022-09-23T07:33:27.919Z,46.36
2022-09-23T07:35:34.364Z,46.86
2022-09-23T07:37:36.660Z,46.89
2022-09-23T07:39:38.991Z,46.78
2022-09-23T07:41:42.245Z,46.81
2022-09-23T07:43:45.804Z,47.67
2022-09-23T07:45:47.940Z,47.83
2022-09-23T07:47:50.984Z,47.97
2022-09-23T07:49:53.427Z,48.38
2022-09-23T07:51:55.792Z,48.17
2022-09-23T07:53:58.474Z,48.81
2022-09-23T07:56:00.690Z,49.22
2022-09-23T07:58:03.159Z,49.06
2022-09-23T08:00:06.609Z,48.89
2022-09-23T08:02:14.071Z,48.59
2022-09-23T08:04:29.834Z,48.87
2022-09-23T08:06:33.176Z,49.11
2022-09-23T08:08:36.615Z,49.22
2022-09-23T08:10:39.018Z,49.13
2022-09-23T08:12:42.089Z,49.43
2022-09-23T08:14:45.222Z,49.32
2022-09-23T08:16:47.703Z,49.36
2022-09-23T08:18:50.715Z,49.39
2022-09-23T08:20:53.937Z,49.76
2022-09-23T08:22:56.818Z,49.51
2022-09-23T08:25:02.649Z,49.65
2022-09-23T08:27:07.510Z,49.40
2022-09-23T08:29:17.106Z,49.55
2022-09-23T08:31:24.085Z,49.74
2022-09-23T08:33:28.352Z,48.73
2022-09-23T08:35:31.087Z,49.37
2022-09-23T08:37:52.245Z,48.51
2022-09-23T08:40:10.127Z,48.95
2022-09-23T08:42:53.000Z,48.52
2022-09-23T08:45:06.895Z,48.42
2022-09-23T08:47:29.833Z,47.82
2022-09-23T08:49:55.529Z,47.96
2022-09-23T08:52:37.380Z,47.48
2022-09-23T08:54:54.580Z,47.37
2022-09-23T08:57:03.109Z,47.60
2022-09-23T08:59:25.586Z,47.43
2022-09-23T09:01:49.125Z,46.93
2022-09-23T09:03:59.327Z,47.19
2022-09-23T09:06:20.087Z,47.64
2022-09-23T09:08:32.528Z,48.07
2022-09-23T09:10:51.132Z,48.37
2022-09-23T09:13:09.574Z,48.87
2022-09-23T09:15:24.337Z,47.96
2022-09-23T09:17:39.957Z,47.87
2022-09-23T09:19:58.013Z,47.95
2022-09-23T09:22:05.216Z,48.10
2022-09-23T09:24:22.961Z,47.48
2022-09-23T09:26:33.846Z,47.53
2022-09-23T09:28:51.787Z,47.24
2022-09-23T09:31:01.745Z,47.14
2022-09-23T09:36:18.378Z,46.55
2022-09-23T09:38:33.270Z,46.01
2022-09-23T09:40:48.493Z,45.35
2022-09-23T09:42:54.567Z,46.16
2022-09-23T09:45:15.910Z,46.29
2022-09-23T09:48:09.319Z,45.86
2022-09-23T09:50:50.612Z,45.14
2022-09-23T09:53:23.639Z,45.25
2022-09-23T09:55:41.674Z,45.18
2022-09-23T09:58:06.957Z,44.78
2022-09-23T10:00:29.169Z,44.55
2022-09-23T10:02:40.497Z,43.63
2022-09-23T10:04:45.879Z,44.44
2022-09-23T10:07:16.105Z,44.60
2022-09-23T10:09:22.113Z,43.88
2022-09-23T10:11:28.871Z,43.70
2022-09-23T10:13:32.392Z,44.11
2022-09-23T10:15:46.322Z,44.24
2022-09-23T10:17:52.091Z,44.48
2022-09-23T10:20:07.509Z,44.45
2022-09-23T10:22:27.071Z,44.41
2022-09-23T10:24:32.878Z,44.01
2022-09-23T10:27:00.472Z,43.93
2022-09-23T10:29:54.395Z,43.74
2022-09-23T10:32:42.367Z,43.05
2022-09-23T10:35:03.484Z,43.59
2022-09-23T10:37:20.962Z,43.66
2022-09-23T10:39:49.098Z,43.04
2022-09-23T10:42:23.828Z,42.28
2022-09-23T10:45:16.551Z,43.12
2022-09-23T10:47:52.791Z,42.96
2022-09-23T10:50:42.227Z,42.28
2022-09-23T10:53:23.854Z,42.30
2022-09-23T10:56:11.323Z,41.80
2022-09-23T10:58:38.176Z,41.40
2022-09-23T11:01:12.921Z,41.62
2022-09-23T11:04:58.685Z,41.66
2022-09-23T11:28:36.921Z,41.03
2022-09-23T11:31:19.344Z,41.18
2022-09-23T11:34:00.425Z,41.21
2022-09-23T11:36:25.657Z,40.29
2022-09-23T11:38:50.805Z,40.47
2022-09-23T11:40:59.908Z,40.67
2022-09-23T11:43:22.387Z,40.93
2022-09-23T11:45:50.076Z,41.42
2022-09-23T11:48:19.467Z,40.99
2022-09-23T11:50:46.255Z,41.35
2022-09-23T11:53:14.578Z,41.27
2022-09-23T11:55:37.038Z,42.17
2022-09-23T11:58:25.596Z,42.21
2022-09-23T12:00:42.693Z,42.85
2022-09-23T12:03:42.794Z,42.04
2022-09-23T12:06:10.772Z,42.09
2022-09-23T12:08:33.477Z,42.58
2022-09-23T12:17:26.184Z,40.57
2022-09-23T12:20:18.963Z,39.52
2022-09-23T12:23:21.134Z,39.41
2022-09-23T12:25:46.314Z,39.30
2022-09-23T12:28:15.752Z,39.81
2022-09-23T12:30:40.449Z,40.04
2022-09-23T12:33:23.341Z,40.26
2022-09-23T12:35:52.472Z,40.58
2022-09-23T12:38:07.535Z,39.77
2022-09-23T12:40:49.148Z,39.32
2022-09-23T12:42:58.006Z,38.72
2022-09-23T12:45:37.984Z,38.56
2022-09-23T12:47:45.996Z,39.29
2022-09-23T12:50:17.107Z,38.82
2022-09-23T12:52:33.707Z,38.63
2022-09-23T13:01:46.240Z,37.54
2022-09-23T13:04:15.537Z,37.00
2022-09-23T13:07:00.595Z,36.73
2022-09-23T13:10:00.154Z,37.18
2022-09-23T13:59:31.745Z,37.10
2022-09-23T14:01:35.542Z,36.99
2022-09-23T14:03:40.673Z,36.89
2022-09-23T14:05:51.771Z,37.05
2022-09-23T14:07:58.165Z,36.82
2022-09-23T14:10:01.006Z,37.11
2022-09-23T14:12:07.629Z,37.90
2022-09-23T14:14:29.557Z,37.03
2022-09-23T14:16:41.588Z,37.34
2022-09-23T14:20:10.041Z,37.79
2022-09-23T14:22:11.713Z,37.63
2022-09-23T14:24:42.559Z,37.66
2022-09-23T14:28:01.263Z,37.71
2022-09-23T14:30:53.299Z,37.13
2022-09-23T14:33:06.726Z,37.64
2022-09-23T14:35:24.204Z,37.72
2022-09-23T14:37:38.443Z,38.06
2022-09-23T14:39:41.270Z,38.21
2022-09-23T14:41:45.852Z,38.26
2022-09-23T14:44:00.711Z,38.70
2022-09-23T14:46:03.486Z,39.37
2022-09-23T14:48:17.630Z,39.72
2022-09-23T14:50:24.966Z,39.66
2022-09-23T14:52:28.000Z,39.58
2022-09-23T14:54:40.373Z,39.33
2022-09-23T14:56:44.045Z,39.68
2022-09-23T14:58:54.677Z,39.88
2022-09-23T15:01:02.938Z,40.37
2022-09-23T15:03:15.468Z,40.86
2022-09-23T15:05:24.457Z,41.20
2022-09-23T15:07:27.030Z,42.06
2022-09-23T15:09:41.663Z,42.28
2022-09-23T15:11:44.832Z,41.99
2022-09-23T15:13:52.318Z,41.44
2022-09-23T15:15:56.709Z,41.17
2022-09-23T15:18:20.646Z,41.23
2022-09-23T15:20:27.516Z,40.73
2022-09-23T15:22:30.296Z,41.01
2022-09-23T15:24:41.532Z,40.66
2022-09-23T15:26:52.665Z,41.50
2022-09-23T15:28:56.979Z,41.79
2022-09-23T15:31:00.636Z,41.69
2022-09-23T15:33:03.695Z,42.34
2022-09-23T15:35:06.838Z,43.10
2022-09-23T15:37:11.906Z,42.77
2022-09-23T15:39:15.604Z,42.96
2022-09-23T15:41:19.118Z,42.98
2022-09-23T15:43:25.279Z,42.96
2022-09-23T15:45:44.960Z,43.74
2022-09-23T15:47:49.673Z,44.04
2022-09-23T15:49:52.617Z,43.57
2022-09-23T15:52:00.455Z,43.49
2022-09-23T17:03:04.095Z,58.07
2022-09-23T17:06:27.586Z,58.09
2022-09-23T17:08:54.010Z,58.93
2022-09-23T17:11:00.841Z,59.02
2022-09-23T17:13:03.797Z,59.85
2022-09-23T17:17:25.729Z,59.79
2022-09-23T17:19:28.980Z,60.07
2022-09-23T17:23:54.305Z,60.31
2022-09-23T17:26:05.245Z,60.47
2022-09-23T17:28:10.824Z,60.48
2022-09-23T17:30:13.617Z,60.55
2022-09-23T17:32:16.257Z,60.68
2022-09-23T17:34:19.856Z,59.91
2022-09-23T17:38:40.494Z,60.21
2022-09-23T17:43:12.385Z,59.13
2022-09-23T17:45:15.115Z,59.49
2022-09-23T17:47:18.324Z,59.52
2022-09-23T17:49:20.841Z,59.49
2022-09-23T17:51:24.692Z,59.80
2022-09-23T17:53:31.398Z,59.42
2022-09-23T17:55:33.648Z,59.80
2022-09-23T17:57:41.964Z,60.08
2022-09-23T17:59:45.907Z,60.14
2022-09-23T18:01:48.408Z,60.38
2022-09-23T18:03:58.347Z,59.89
2022-09-23T18:06:14.060Z,60.28
2022-09-23T18:08:16.613Z,60.13
2022-09-23T18:10:19.324Z,60.39
2022-09-23T18:12:22.364Z,60.54
2022-09-23T18:14:24.772Z,60.11
2022-09-23T18:16:37.463Z,60.50
2022-09-23T18:18:41.068Z,60.70
2022-09-23T18:20:43.987Z,60.78
2022-09-23T18:22:48.328Z,60.65
2022-09-23T18:24:53.260Z,61.11
2022-09-23T18:26:55.798Z,61.20
2022-09-23T18:28:59.817Z,61.16
2022-09-23T18:31:03.257Z,60.98
2022-09-23T18:33:05.698Z,60.98
2022-09-23T18:35:08.203Z,61.18
2022-09-23T18:37:15.680Z,60.88
2022-09-23T18:39:18.705Z,61.03
2022-09-23T18:41:21.949Z,60.60
2022-09-23T18:43:37.288Z,61.32
2022-09-23T18:45:41.950Z,60.80
2022-09-23T18:47:44.402Z,60.89
2022-09-23T18:49:47.093Z,61.22
2022-09-23T18:51:53.175Z,60.63
2022-09-23T18:54:00.778Z,60.82
2022-09-23T18:56:19.839Z,60.89
2022-09-23T18:58:22.201Z,60.93
2022-09-23T19:00:24.599Z,60.60
2022-09-23T19:02:29.836Z,60.48
2022-09-23T19:04:32.248Z,60.94
2022-09-23T19:06:39.377Z,61.06
2022-09-23T19:08:45.769Z,61.24
2022-09-23T19:11:06.111Z,60.84
2022-09-23T19:13:15.460Z,60.77
2022-09-23T19:15:47.173Z,61.04
2022-09-23T19:17:49.582Z,61.20
2022-09-23T19:20:20.744Z,61.19
2022-09-23T19:22:46.072Z,61.57
2022-09-23T19:25:13.085Z,62.12
2022-09-23T19:27:29.285Z,61.74
2022-09-23T19:29:31.954Z,62.15
2022-09-23T19:32:09.135Z,62.35
2022-09-23T19:34:26.573Z,62.70
2022-09-23T19:36:40.495Z,62.80
2022-09-23T19:38:47.442Z,62.71
2022-09-23T19:40:51.078Z,62.90
2022-09-23T19:42:53.802Z,62.98
2022-09-23T19:44:57.279Z,63.38
2022-09-23T19:47:00.126Z,63.45
2022-09-23T19:49:03.155Z,63.55
2022-09-23T19:51:08.918Z,63.57
2022-09-23T19:53:53.971Z,63.54
2022-09-23T19:56:19.494Z,63.77
2022-09-23T19:58:22.505Z,64.42
2022-09-23T20:00:24.865Z,63.81
2022-09-23T20:02:28.032Z,64.16
2022-09-23T20:04:34.298Z,64.22
2022-09-23T20:06:38.023Z,64.04
2022-09-23T20:08:42.313Z,64.38
2022-09-23T20:10:45.012Z,64.62
2022-09-23T20:12:47.807Z,64.58
2022-09-23T20:14:50.483Z,65.06
2022-09-23T20:16:52.751Z,65.07
2022-09-23T20:18:55.831Z,64.97
2022-09-23T20:20:58.783Z,65.39
2022-09-23T20:23:01.478Z,65.30
2022-09-23T20:25:05.497Z,65.55
2022-09-23T20:27:08.165Z,65.86
2022-09-23T20:29:10.978Z,65.94
2022-09-23T20:31:15.091Z,66.25
2022-09-23T20:33:20.665Z,66.06
2022-09-23T20:35:28.235Z,66.12
2022-09-23T20:37:30.713Z,66.15
2022-09-23T20:39:33.455Z,66.22
2022-09-23T20:41:37.155Z,66.64
2022-09-23T20:43:39.637Z,66.98
2022-09-23T20:45:50.524Z,66.97
2022-09-23T20:47:53.067Z,66.86
2022-09-23T20:49:55.684Z,66.93
2022-09-23T20:51:58.626Z,67.02
2022-09-23T20:54:01.481Z,66.76
2022-09-23T20:56:04.012Z,66.73
2022-09-23T20:58:08.493Z,67.31
2022-09-23T21:00:13.674Z,66.99
2022-09-23T21:02:16.242Z,67.46
2022-09-23T21:04:18.928Z,67.79
2022-09-23T21:06:21.202Z,67.91
2022-09-23T21:08:23.593Z,67.68
2022-09-23T21:10:26.488Z,67.72
2022-09-23T21:12:28.737Z,68.14
2022-09-23T21:14:31.074Z,68.05
2022-09-23T21:16:34.420Z,68.26
2022-09-23T21:18:39.174Z,68.33
2022-09-23T21:20:42.134Z,68.27
2022-09-23T21:22:45.060Z,68.60
2022-09-23T21:25:26.313Z,68.03
2022-09-23T21:27:09.807Z,68.55
2022-09-23T21:29:12.981Z,68.64
2022-09-23T21:31:22.268Z,68.33
2022-09-23T21:33:24.668Z,68.94
2022-09-23T21:35:27.308Z,68.77
2022-09-23T21:40:39.651Z,68.97
2022-09-23T21:42:41.809Z,69.07
2022-09-23T21:44:43.973Z,68.79
2022-09-23T21:46:47.239Z,68.87
2022-09-23T21:48:52.488Z,69.14
2022-09-23T21:51:06.563Z,68.74
2022-09-23T21:53:09.022Z,68.85
2022-09-23T21:55:10.994Z,68.87
2022-09-23T21:57:13.152Z,69.41
2022-09-23T21:59:15.986Z,69.15
2022-09-23T22:01:20.455Z,69.30
2022-09-23T22:03:23.448Z,69.46
2022-09-23T22:05:26.518Z,69.31
2022-09-23T22:07:28.586Z,69.43
2022-09-23T22:09:31.024Z,68.94
2022-09-23T22:11:33.700Z,69.35
2022-09-23T22:13:36.063Z,69.34
2022-09-23T22:16:04.180Z,69.42
2022-09-23T22:18:06.830Z,69.63
2022-09-23T22:20:09.415Z,70.04
2022-09-23T22:22:15.776Z,70.05
2022-09-23T22:24:19.280Z,69.78
2022-09-23T22:26:21.638Z,70.27
2022-09-23T22:28:23.844Z,70.30
2022-09-23T22:30:26.576Z,70.41
2022-09-23T22:32:28.868Z,70.40
2022-09-23T22:34:48.985Z,70.12
2022-09-23T22:36:51.941Z,70.05
2022-09-23T22:38:58.408Z,70.73
2022-09-23T22:41:01.727Z,70.70
2022-09-23T22:43:04.549Z,70.69
2022-09-23T22:45:07.848Z,71.19
2022-09-23T22:47:10.707Z,71.27
2022-09-23T22:49:14.262Z,71.06
2022-09-23T22:51:16.919Z,71.39
2022-09-23T22:53:19.251Z,71.18
2022-09-23T22:55:22.021Z,71.64
2022-09-23T22:57:24.369Z,72.01
2022-09-23T22:59:26.568Z,71.80
2022-09-23T23:01:30.582Z,71.72
2022-09-23T23:03:32.916Z,71.75
2022-09-23T23:05:35.278Z,71.89
2022-09-23T23:07:37.881Z,71.94
2022-09-23T23:09:40.176Z,72.12
2022-09-23T23:11:43.606Z,71.99
2022-09-23T23:13:46.125Z,72.63
2022-09-23T23:15:49.078Z,72.39
2022-09-23T23:17:52.906Z,72.61
2022-09-23T23:19:55.500Z,72.63
2022-09-23T23:21:57.814Z,72.38
2022-09-23T23:24:00.681Z,72.89
2022-09-23T23:26:31.085Z,73.21
2022-09-23T23:28:33.350Z,73.15
2022-09-23T23:30:35.683Z,73.20
2022-09-23T23:32:38.872Z,73.57
2022-09-23T23:34:41.074Z,73.75
2022-09-23T23:36:44.176Z,73.12
2022-09-23T23:38:49.464Z,73.10
2022-09-23T23:40:51.690Z,73.66
2022-09-23T23:42:53.951Z,73.86
2022-09-23T23:44:56.813Z,73.51
2022-09-23T23:46:58.964Z,73.94
2022-09-23T23:49:01.305Z,73.94
2022-09-23T23:51:06.762Z,74.04
2022-09-23T23:53:09.032Z,73.96
2022-09-23T23:55:11.190Z,74.20
2022-09-23T23:57:13.823Z,74.19
2022-09-23T23:59:15.945Z,74.00
